createdAt,value
2023-08-29T00:01:59.963Z,59.29
2023-08-29T00:04:26.595Z,59.43
2023-08-29T00:06:53.296Z,59.68
2023-08-29T00:09:22.851Z,59.21
2023-08-29T00:11:54.010Z,59.55
2023-08-29T00:14:20.675Z,59.52
2023-08-29T00:16:47.298Z,59.54
2023-08-29T00:19:16.124Z,59.57
2023-08-29T00:21:43.082Z,59.57
2023-08-29T00:24:10.053Z,59.57
2023-08-29T00:26:36.774Z,59.48
2023-08-29T00:29:03.418Z,59.63
2023-08-29T00:31:35.027Z,59.73
2023-08-29T00:34:01.661Z,59.61
2023-08-29T00:36:28.302Z,60.05
2023-08-29T00:38:54.961Z,59.71
2023-08-29T00:41:21.576Z,59.74
2023-08-29T00:43:48.240Z,59.53
2023-08-29T00:46:18.104Z,59.77
2023-08-29T00:48:45.039Z,60.02
2023-08-29T00:51:11.893Z,59.98
2023-08-29T00:53:41.082Z,59.85
2023-08-29T00:56:11.117Z,60.08
2023-08-29T00:58:37.808Z,59.83
2023-08-29T01:01:04.786Z,59.92
2023-08-29T01:03:31.945Z,59.82
2023-08-29T01:05:58.582Z,60.32
2023-08-29T01:08:25.662Z,60.17
2023-08-29T01:11:26.097Z,60.29
2023-08-29T01:13:58.438Z,59.91
2023-08-29T01:16:40.238Z,60.26
2023-08-29T01:19:14.197Z,59.96
2023-08-29T01:21:50.876Z,60.17
2023-08-29T01:24:31.490Z,60.40
2023-08-29T01:27:01.957Z,60.12
2023-08-29T01:29:29.281Z,60.47
2023-08-29T01:31:58.841Z,60.38
2023-08-29T01:34:26.379Z,60.26
2023-08-29T01:36:53.298Z,60.30
2023-08-29T01:39:22.377Z,60.54
2023-08-29T01:41:48.998Z,60.47
2023-08-29T01:44:15.622Z,60.41
2023-08-29T01:46:42.249Z,60.65
2023-08-29T01:49:09.050Z,60.43
2023-08-29T01:51:35.735Z,60.84
2023-08-29T01:54:02.441Z,60.58
2023-08-29T01:56:33.620Z,60.59
2023-08-29T01:59:00.513Z,60.59
2023-08-29T02:01:31.540Z,60.80
2023-08-29T02:04:00.793Z,60.76
2023-08-29T02:06:32.226Z,60.86
2023-08-29T02:08:58.869Z,60.89
2023-08-29T02:11:25.567Z,60.71
2023-08-29T02:13:52.176Z,61.06
2023-08-29T02:16:18.872Z,61.15
2023-08-29T02:18:45.503Z,60.86
2023-08-29T02:21:12.139Z,61.13
2023-08-29T02:23:40.973Z,60.72
2023-08-29T02:26:10.206Z,60.95
2023-08-29T02:28:38.710Z,60.80
2023-08-29T02:31:14.660Z,61.00
2023-08-29T02:33:44.557Z,61.23
2023-08-29T02:36:11.192Z,61.00
2023-08-29T02:38:40.141Z,60.80
2023-08-29T02:41:07.607Z,61.15
2023-08-29T02:43:34.262Z,61.36
2023-08-29T02:46:01.022Z,61.16
2023-08-29T02:48:29.052Z,61.43
2023-08-29T02:51:00.464Z,61.31
2023-08-29T02:53:27.134Z,61.46
2023-08-29T02:55:54.100Z,61.11
2023-08-29T02:58:21.557Z,61.46
2023-08-29T03:00:49.222Z,61.50
2023-08-29T03:03:17.447Z,61.37
2023-08-29T03:05:53.872Z,61.37
2023-08-29T03:08:23.567Z,61.46
2023-08-29T03:10:51.525Z,61.41
2023-08-29T03:13:20.920Z,61.56
2023-08-29T03:15:50.316Z,61.25
2023-08-29T03:18:19.051Z,61.54
2023-08-29T03:20:48.001Z,61.46
2023-08-29T03:23:14.763Z,61.78
2023-08-29T03:25:44.234Z,61.82
2023-08-29T03:28:10.855Z,61.56
2023-08-29T03:30:37.574Z,61.58
2023-08-29T03:33:04.710Z,61.58
2023-08-29T03:35:31.446Z,61.81
2023-08-29T03:37:58.097Z,61.91
2023-08-29T03:40:24.739Z,61.75
2023-08-29T03:42:51.390Z,61.56
2023-08-29T03:45:20.603Z,61.89
2023-08-29T03:47:47.369Z,61.64
2023-08-29T03:50:14.070Z,61.65
2023-08-29T03:52:40.728Z,61.91
2023-08-29T03:55:07.713Z,62.04
2023-08-29T03:57:34.472Z,62.00
2023-08-29T04:00:08.067Z,62.12
2023-08-29T04:02:37.010Z,62.01
2023-08-29T04:05:16.244Z,62.12
2023-08-29T04:07:43.517Z,62.18
2023-08-29T04:10:10.722Z,61.98
2023-08-29T04:12:42.171Z,61.86
2023-08-29T04:15:09.566Z,62.12
2023-08-29T04:17:41.033Z,62.23
2023-08-29T04:20:14.128Z,62.15
2023-08-29T04:22:43.934Z,62.34
2023-08-29T04:25:10.534Z,62.08
2023-08-29T04:27:39.514Z,62.05
2023-08-29T04:30:06.843Z,61.97
2023-08-29T04:32:35.684Z,62.32
2023-08-29T04:35:02.439Z,62.27
2023-08-29T04:37:31.324Z,62.33
2023-08-29T04:40:00.887Z,62.22
2023-08-29T04:42:28.061Z,62.05
2023-08-29T04:44:55.227Z,62.24
2023-08-29T04:47:25.260Z,62.31
2023-08-29T04:49:51.989Z,62.42
2023-08-29T04:52:18.596Z,62.23
2023-08-29T04:54:45.239Z,62.58
2023-08-29T04:57:14.424Z,62.12
2023-08-29T04:59:41.768Z,62.56
2023-08-29T05:02:09.499Z,62.53
2023-08-29T05:04:36.433Z,62.43
2023-08-29T05:07:03.104Z,62.62
2023-08-29T05:09:31.840Z,62.68
2023-08-29T05:11:58.440Z,62.57
2023-08-29T05:14:25.068Z,62.58
2023-08-29T05:16:52.365Z,62.57
2023-08-29T05:19:19.018Z,62.54
2023-08-29T05:21:48.036Z,62.46
2023-08-29T05:24:14.659Z,62.69
2023-08-29T05:26:41.309Z,62.63
2023-08-29T05:29:08.142Z,62.60
2023-08-29T05:31:34.817Z,62.90
2023-08-29T05:34:01.442Z,62.94
2023-08-29T05:36:28.051Z,63.02
2023-08-29T05:38:54.780Z,62.77
2023-08-29T05:41:22.172Z,62.97
2023-08-29T05:43:48.839Z,63.02
2023-08-29T05:46:15.824Z,63.06
2023-08-29T05:48:45.384Z,63.07
2023-08-29T05:51:12.075Z,62.81
2023-08-29T05:53:38.707Z,63.00
2023-08-29T05:56:07.853Z,63.09
2023-08-29T05:58:37.533Z,63.15
2023-08-29T06:01:07.759Z,63.23
2023-08-29T06:03:37.561Z,63.15
2023-08-29T06:06:04.766Z,63.12
2023-08-29T06:08:34.573Z,63.24
2023-08-29T06:11:04.911Z,63.18
2023-08-29T06:13:31.930Z,63.37
2023-08-29T06:15:58.767Z,62.93
2023-08-29T06:18:28.414Z,63.29
2023-08-29T06:20:55.080Z,63.05
2023-08-29T06:23:21.676Z,63.28
2023-08-29T06:25:50.267Z,62.98
2023-08-29T06:28:16.999Z,63.09
2023-08-29T06:30:43.747Z,62.80
2023-08-29T06:33:10.646Z,63.18
2023-08-29T06:35:40.580Z,63.18
2023-08-29T06:38:09.966Z,62.99
2023-08-29T06:40:36.978Z,63.11
2023-08-29T06:43:03.866Z,63.10
2023-08-29T06:45:32.753Z,62.67
2023-08-29T06:47:59.386Z,62.78
2023-08-29T06:50:26.028Z,62.66
2023-08-29T06:52:52.622Z,62.84
2023-08-29T06:55:19.235Z,62.85
2023-08-29T06:57:45.935Z,62.73
2023-08-29T07:00:23.906Z,62.52
2023-08-29T07:02:52.158Z,62.76
2023-08-29T07:05:18.989Z,62.71
2023-08-29T07:07:45.626Z,63.11
2023-08-29T07:10:17.743Z,63.76
2023-08-29T07:12:44.384Z,63.97
2023-08-29T07:15:13.586Z,64.02
2023-08-29T07:17:42.285Z,64.31
2023-08-29T07:20:10.592Z,63.85
2023-08-29T07:22:44.454Z,64.13
2023-08-29T07:25:13.838Z,63.82
2023-08-29T07:27:40.855Z,63.88
2023-08-29T07:30:16.570Z,63.98
2023-08-29T07:32:43.966Z,63.79
2023-08-29T07:35:13.004Z,63.70
2023-08-29T07:37:41.878Z,63.90
2023-08-29T07:40:10.181Z,63.49
2023-08-29T07:42:36.849Z,63.66
2023-08-29T07:45:04.288Z,63.26
2023-08-29T07:47:35.915Z,63.18
2023-08-29T07:50:02.643Z,63.09
2023-08-29T07:52:29.408Z,63.28
2023-08-29T07:54:59.434Z,63.31
2023-08-29T07:57:26.082Z,62.96
2023-08-29T07:59:52.799Z,63.08
2023-08-29T08:02:19.427Z,63.09
2023-08-29T08:04:46.093Z,62.99
2023-08-29T08:07:12.750Z,62.58
2023-08-29T08:09:39.420Z,62.85
2023-08-29T08:12:09.316Z,62.71
2023-08-29T08:14:35.960Z,62.73
2023-08-29T08:17:04.754Z,62.41
2023-08-29T08:19:31.464Z,62.63
2023-08-29T08:22:01.024Z,62.39
2023-08-29T08:24:30.158Z,62.28
2023-08-29T08:26:56.760Z,62.46
2023-08-29T08:29:23.517Z,61.88
2023-08-29T08:31:53.200Z,62.00
2023-08-29T08:34:19.841Z,61.55
2023-08-29T08:36:48.822Z,61.50
2023-08-29T08:39:17.688Z,61.61
2023-08-29T08:41:44.996Z,61.23
2023-08-29T08:44:16.914Z,61.35
2023-08-29T08:46:44.810Z,61.20
2023-08-29T08:49:16.250Z,61.35
2023-08-29T08:51:43.048Z,60.91
2023-08-29T08:54:12.932Z,60.83
2023-08-29T08:56:39.994Z,60.61
2023-08-29T08:59:06.757Z,60.49
2023-08-29T09:01:33.487Z,60.65
2023-08-29T09:04:05.011Z,59.91
2023-08-29T09:06:31.741Z,59.76
2023-08-29T09:09:10.691Z,59.74
2023-08-29T09:11:42.889Z,59.90
2023-08-29T09:14:14.183Z,59.79
2023-08-29T09:16:44.163Z,59.81
2023-08-29T09:19:10.830Z,59.86
2023-08-29T09:21:43.546Z,59.57
2023-08-29T09:24:13.949Z,59.38
2023-08-29T09:26:42.047Z,59.09
2023-08-29T09:29:19.966Z,59.01
2023-08-29T09:31:50.081Z,58.75
2023-08-29T09:34:32.997Z,59.20
2023-08-29T09:37:04.542Z,59.46
2023-08-29T09:39:31.317Z,59.76
2023-08-29T09:42:08.923Z,59.87
2023-08-29T09:44:38.091Z,59.96
2023-08-29T09:47:10.739Z,59.82
2023-08-29T09:49:44.534Z,59.98
2023-08-29T09:52:11.728Z,59.97
2023-08-29T09:54:50.963Z,59.84
2023-08-29T09:57:20.910Z,59.47
2023-08-29T09:59:48.152Z,59.32
2023-08-29T10:02:19.801Z,59.42
2023-08-29T10:04:50.691Z,58.71
2023-08-29T10:07:23.260Z,58.37
2023-08-29T10:09:50.211Z,58.43
2023-08-29T10:12:20.297Z,58.06
2023-08-29T10:14:48.206Z,57.91
2023-08-29T10:17:29.935Z,57.72
2023-08-29T10:20:00.918Z,57.78
2023-08-29T10:22:31.316Z,57.61
2023-08-29T10:25:02.184Z,57.17
2023-08-29T10:27:31.122Z,56.71
2023-08-29T10:29:58.034Z,56.54
2023-08-29T10:32:28.003Z,56.57
2023-08-29T10:34:57.528Z,57.00
2023-08-29T10:37:31.532Z,56.60
2023-08-29T10:40:12.910Z,55.88
2023-08-29T10:43:01.918Z,56.16
2023-08-29T10:46:06.042Z,56.26
2023-08-29T10:48:47.617Z,56.08
2023-08-29T10:51:16.167Z,55.52
2023-08-29T10:53:48.967Z,55.36
2023-08-29T10:56:18.756Z,55.40
2023-08-29T10:58:54.062Z,55.07
2023-08-29T11:01:29.699Z,55.20
2023-08-29T11:03:58.007Z,54.96
2023-08-29T11:06:59.396Z,54.98
2023-08-29T11:09:29.527Z,54.69
2023-08-29T11:12:18.178Z,54.29
2023-08-29T11:14:56.757Z,53.86
2023-08-29T11:17:24.874Z,54.04
2023-08-29T11:19:59.811Z,53.91
2023-08-29T11:22:31.034Z,53.71
2023-08-29T11:24:58.862Z,54.20
2023-08-29T11:27:32.579Z,53.69
2023-08-29T11:32:36.060Z,53.93
2023-08-29T11:35:05.566Z,53.76
2023-08-29T11:37:35.770Z,53.64
2023-08-29T11:40:11.912Z,53.54
2023-08-29T11:43:26.042Z,53.70
2023-08-29T11:45:48.521Z,53.17
2023-08-29T11:48:27.388Z,52.82
2023-08-29T11:50:55.606Z,52.76
2023-08-29T11:53:30.687Z,52.92
2023-08-29T11:56:00.422Z,52.80
2023-08-29T11:58:38.976Z,53.95
2023-08-29T12:01:06.157Z,52.60
2023-08-29T12:03:36.361Z,51.48
2023-08-29T12:06:05.884Z,50.72
2023-08-29T12:08:41.058Z,51.12
2023-08-29T12:11:11.483Z,51.01
2023-08-29T12:13:38.485Z,50.76
2023-08-29T12:16:16.554Z,50.60
2023-08-29T12:18:43.728Z,51.08
2023-08-29T12:21:21.386Z,51.09
2023-08-29T12:23:50.552Z,50.98
2023-08-29T12:26:17.263Z,51.33
2023-08-29T12:28:44.276Z,50.97
2023-08-29T12:31:11.830Z,50.83
2023-08-29T12:33:38.707Z,51.13
2023-08-29T12:36:05.836Z,50.71
2023-08-29T12:38:32.746Z,50.60
2023-08-29T12:40:59.454Z,50.52
2023-08-29T12:43:26.212Z,50.47
2023-08-29T12:45:59.799Z,50.47
2023-08-29T12:48:27.515Z,50.27
2023-08-29T12:50:57.171Z,50.21
2023-08-29T12:53:23.842Z,50.38
2023-08-29T12:55:51.888Z,49.75
2023-08-29T12:58:20.878Z,49.90
2023-08-29T13:00:50.104Z,49.69
2023-08-29T13:03:16.987Z,49.81
2023-08-29T13:05:44.238Z,49.70
2023-08-29T13:08:10.888Z,49.76
2023-08-29T13:10:40.696Z,49.25
2023-08-29T13:13:07.324Z,49.70
2023-08-29T13:15:45.237Z,49.55
2023-08-29T13:18:19.720Z,49.83
2023-08-29T13:20:46.685Z,49.83
2023-08-29T13:23:13.357Z,50.28
2023-08-29T13:25:42.983Z,49.99
2023-08-29T13:28:11.869Z,50.53
2023-08-29T13:30:38.558Z,50.35
2023-08-29T13:33:05.431Z,50.18
2023-08-29T13:35:32.124Z,49.96
2023-08-29T13:37:58.797Z,49.84
2023-08-29T13:40:25.456Z,49.65
2023-08-29T13:42:54.404Z,49.63
2023-08-29T13:45:21.134Z,49.03
2023-08-29T13:47:51.096Z,49.35
2023-08-29T13:50:20.831Z,49.45
2023-08-29T13:52:47.466Z,49.23
2023-08-29T13:55:14.228Z,50.09
2023-08-29T13:57:40.932Z,50.36
2023-08-29T14:00:08.995Z,50.59
2023-08-29T14:02:37.961Z,51.19
2023-08-29T14:05:05.076Z,51.33
2023-08-29T14:07:31.715Z,51.29
2023-08-29T14:09:58.400Z,51.45
2023-08-29T14:12:25.035Z,51.57
2023-08-29T14:14:51.830Z,51.33
2023-08-29T14:17:19.651Z,51.12
2023-08-29T14:19:46.397Z,51.27
2023-08-29T14:22:15.215Z,51.93
2023-08-29T14:24:46.833Z,51.71
2023-08-29T14:27:18.139Z,51.72
2023-08-29T14:29:47.127Z,51.62
2023-08-29T14:32:16.087Z,51.78
2023-08-29T14:34:45.940Z,51.61
2023-08-29T14:37:14.618Z,51.66
2023-08-29T14:39:41.356Z,52.17
2023-08-29T14:42:10.186Z,52.01
2023-08-29T14:44:36.929Z,51.48
2023-08-29T14:47:06.695Z,51.73
2023-08-29T14:49:33.316Z,51.05
2023-08-29T14:52:00.061Z,50.91
2023-08-29T14:54:26.870Z,50.87
2023-08-29T14:56:53.628Z,50.91
2023-08-29T14:59:20.278Z,51.00
2023-08-29T15:01:46.915Z,51.21
2023-08-29T15:04:18.270Z,51.21
2023-08-29T15:06:45.018Z,51.52
2023-08-29T15:09:11.718Z,51.58
2023-08-29T15:11:38.541Z,51.42
2023-08-29T15:14:05.445Z,51.46
2023-08-29T15:16:36.286Z,51.54
2023-08-29T15:19:07.496Z,51.70
2023-08-29T15:21:34.125Z,51.57
2023-08-29T15:24:00.919Z,51.65
2023-08-29T15:26:27.719Z,51.83
2023-08-29T15:28:57.354Z,51.49
2023-08-29T15:31:24.026Z,51.80
2023-08-29T15:33:53.132Z,52.08
2023-08-29T15:36:24.738Z,51.82
2023-08-29T15:38:51.794Z,51.78
2023-08-29T15:41:18.457Z,51.92
2023-08-29T15:43:46.927Z,52.26
2023-08-29T15:46:13.683Z,52.11
2023-08-29T15:48:40.403Z,52.07
2023-08-29T15:51:07.096Z,52.24
2023-08-29T15:53:37.305Z,52.01
2023-08-29T15:56:06.237Z,51.34
2023-08-29T15:58:35.216Z,51.53
2023-08-29T16:01:11.603Z,51.46
2023-08-29T16:03:38.463Z,51.25
2023-08-29T16:06:07.697Z,51.34
2023-08-29T16:08:39.676Z,51.67
2023-08-29T16:11:08.690Z,51.59
2023-08-29T16:13:37.701Z,52.13
2023-08-29T16:16:04.680Z,52.45
2023-08-29T16:18:32.189Z,52.81
2023-08-29T16:21:01.068Z,54.04
2023-08-29T16:23:29.897Z,54.44
2023-08-29T16:25:56.624Z,55.32
2023-08-29T16:28:24.482Z,55.67
2023-08-29T16:30:51.239Z,56.27
2023-08-29T16:33:21.084Z,57.57
2023-08-29T16:35:47.729Z,57.74
2023-08-29T16:38:14.370Z,58.78
2023-08-29T16:40:43.328Z,58.89
2023-08-29T16:43:09.944Z,59.64
2023-08-29T16:45:36.594Z,59.96
2023-08-29T16:48:03.646Z,60.15
2023-08-29T16:50:30.298Z,60.04
2023-08-29T16:52:57.450Z,60.29
2023-08-29T16:55:28.817Z,60.97
2023-08-29T16:58:00.674Z,60.88
2023-08-29T17:00:30.176Z,61.77
2023-08-29T17:02:59.094Z,61.56
2023-08-29T17:05:28.377Z,62.05
2023-08-29T17:07:55.047Z,62.36
2023-08-29T17:10:23.007Z,62.88
2023-08-29T17:12:49.714Z,62.90
2023-08-29T17:15:16.400Z,63.03
2023-08-29T17:17:43.160Z,63.61
2023-08-29T17:20:10.707Z,63.92
2023-08-29T17:22:37.331Z,64.07
2023-08-29T17:25:04.452Z,64.33
2023-08-29T17:27:36.024Z,64.50
2023-08-29T17:30:06.526Z,64.26
2023-08-29T17:32:36.165Z,65.01
2023-08-29T17:35:03.044Z,64.95
2023-08-29T17:37:31.948Z,65.31
2023-08-29T17:39:58.747Z,65.66
2023-08-29T17:42:25.534Z,65.59
2023-08-29T17:44:53.279Z,65.65
2023-08-29T17:47:19.993Z,65.87
2023-08-29T17:49:46.672Z,66.55
2023-08-29T17:52:13.407Z,66.69
2023-08-29T17:54:42.549Z,66.63
2023-08-29T17:57:09.194Z,66.49
2023-08-29T17:59:35.872Z,67.01
2023-08-29T18:02:05.271Z,67.51
2023-08-29T18:04:34.227Z,67.25
2023-08-29T18:07:00.945Z,67.73
2023-08-29T18:09:27.597Z,67.89
2023-08-29T18:11:56.336Z,68.42
2023-08-29T18:14:22.994Z,68.61
2023-08-29T18:16:50.951Z,68.80
2023-08-29T18:19:17.706Z,68.83
2023-08-29T18:21:46.900Z,69.15
2023-08-29T18:24:15.937Z,68.86
2023-08-29T18:26:44.856Z,69.51
2023-08-29T18:29:13.965Z,69.49
2023-08-29T18:31:40.715Z,68.59
2023-08-29T18:34:07.372Z,67.89
2023-08-29T18:36:38.903Z,67.21
2023-08-29T18:39:10.888Z,66.52
2023-08-29T18:41:37.501Z,66.55
2023-08-29T18:44:06.497Z,66.01
2023-08-29T18:46:35.408Z,65.55
2023-08-29T18:49:04.640Z,64.87
2023-08-29T18:51:31.309Z,64.95
2023-08-29T18:53:57.997Z,64.89
2023-08-29T18:56:24.665Z,64.34
2023-08-29T18:58:51.363Z,64.68
2023-08-29T19:01:18.116Z,64.66
2023-08-29T19:03:44.911Z,64.14
2023-08-29T19:06:15.078Z,64.57
2023-08-29T19:08:41.949Z,64.60
2023-08-29T19:11:12.820Z,64.03
2023-08-29T19:13:41.622Z,64.57
2023-08-29T19:16:08.497Z,64.69
2023-08-29T19:18:40.222Z,64.60
2023-08-29T19:21:07.295Z,64.69
2023-08-29T19:23:34.012Z,64.50
2023-08-29T19:26:00.696Z,64.61
2023-08-29T19:28:32.067Z,64.70
2023-08-29T19:30:58.735Z,64.15
2023-08-29T19:33:25.548Z,63.94
2023-08-29T19:35:52.229Z,64.31
2023-08-29T19:38:18.859Z,64.27
2023-08-29T19:40:50.017Z,64.26
2023-08-29T19:43:18.902Z,64.09
2023-08-29T19:45:45.514Z,63.93
2023-08-29T19:48:14.541Z,64.33
2023-08-29T19:50:41.255Z,64.09
2023-08-29T19:53:07.893Z,64.53
2023-08-29T19:55:37.009Z,64.39
2023-08-29T19:58:03.919Z,64.57
2023-08-29T20:00:32.926Z,64.61
2023-08-29T20:03:01.447Z,64.09
2023-08-29T20:05:30.483Z,64.21
2023-08-29T20:07:58.965Z,64.05
2023-08-29T20:10:26.791Z,64.23
2023-08-29T20:12:55.705Z,63.89
2023-08-29T20:15:22.326Z,64.24
2023-08-29T20:17:51.501Z,64.06
2023-08-29T20:20:18.197Z,64.15
2023-08-29T20:22:47.233Z,64.09
2023-08-29T20:25:16.331Z,63.64
2023-08-29T20:27:45.179Z,63.49
2023-08-29T20:30:12.380Z,63.90
2023-08-29T20:32:42.078Z,63.48
2023-08-29T20:35:11.979Z,64.48
2023-08-29T20:37:38.667Z,64.48
2023-08-29T20:40:08.853Z,64.71
2023-08-29T20:42:37.110Z,64.59
2023-08-29T20:45:04.848Z,63.85
2023-08-29T20:47:31.538Z,64.02
2023-08-29T20:49:58.188Z,63.64
2023-08-29T20:52:29.259Z,63.47
2023-08-29T20:54:58.148Z,63.61
2023-08-29T20:57:24.780Z,63.39
2023-08-29T20:59:51.366Z,63.76
2023-08-29T21:02:18.010Z,63.42
2023-08-29T21:04:44.965Z,63.61
2023-08-29T21:07:11.843Z,63.88
2023-08-29T21:09:38.510Z,63.92
2023-08-29T21:12:06.309Z,63.89
2023-08-29T21:14:32.990Z,63.60
2023-08-29T21:16:59.669Z,63.95
2023-08-29T21:19:26.321Z,64.29
2023-08-29T21:21:52.947Z,64.63
2023-08-29T21:24:21.804Z,64.77
2023-08-29T21:26:50.684Z,65.17
2023-08-29T21:29:19.569Z,65.36
2023-08-29T21:31:46.350Z,65.32
2023-08-29T21:34:15.449Z,65.46
2023-08-29T21:36:42.105Z,65.37
2023-08-29T21:39:10.872Z,65.71
2023-08-29T21:41:43.521Z,65.70
2023-08-29T21:44:11.830Z,65.97
2023-08-29T21:46:41.072Z,65.91
2023-08-29T21:49:07.718Z,66.27
2023-08-29T21:51:36.889Z,66.36
2023-08-29T21:54:05.768Z,66.26
2023-08-29T21:56:32.416Z,66.12
2023-08-29T21:58:59.150Z,66.34
2023-08-29T22:01:25.888Z,66.57
2023-08-29T22:03:52.561Z,66.67
2023-08-29T22:06:19.284Z,66.64
2023-08-29T22:08:45.972Z,66.92
2023-08-29T22:11:12.687Z,66.88
2023-08-29T22:13:44.040Z,66.73
2023-08-29T22:16:13.192Z,66.69
2023-08-29T22:18:40.011Z,66.94
2023-08-29T22:21:09.713Z,66.85
2023-08-29T22:23:36.353Z,67.12
2023-08-29T22:26:09.485Z,66.89
2023-08-29T22:28:36.269Z,67.28
2023-08-29T22:31:03.021Z,67.38
2023-08-29T22:33:32.236Z,67.34
2023-08-29T22:35:59.390Z,67.43
2023-08-29T22:38:28.290Z,67.34
2023-08-29T22:41:15.385Z,67.78
2023-08-29T22:43:42.462Z,67.40
2023-08-29T22:46:11.179Z,67.59
2023-08-29T22:48:37.920Z,67.97
2023-08-29T22:51:05.393Z,67.84
2023-08-29T22:53:32.015Z,67.64
2023-08-29T22:56:03.741Z,67.64
2023-08-29T22:58:30.411Z,67.83
2023-08-29T23:00:57.048Z,68.19
2023-08-29T23:03:23.713Z,68.03
2023-08-29T23:05:50.392Z,68.10
2023-08-29T23:08:17.422Z,67.91
2023-08-29T23:10:44.456Z,67.94
2023-08-29T23:13:13.337Z,67.97
2023-08-29T23:15:40.077Z,68.25
2023-08-29T23:18:11.811Z,68.37
2023-08-29T23:20:38.790Z,67.95
2023-08-29T23:23:10.169Z,67.95
2023-08-29T23:25:36.858Z,67.84
2023-08-29T23:28:03.694Z,68.08
2023-08-29T23:30:32.868Z,68.35
2023-08-29T23:33:04.332Z,68.15
2023-08-29T23:35:31.047Z,68.48
2023-08-29T23:37:57.683Z,68.07
2023-08-29T23:40:24.339Z,68.20
2023-08-29T23:42:50.960Z,68.40
2023-08-29T23:45:19.795Z,68.61
2023-08-29T23:47:49.176Z,68.20
2023-08-29T23:50:18.209Z,68.48
2023-08-29T23:52:44.864Z,68.62
2023-08-29T23:55:11.470Z,68.26
2023-08-29T23:57:38.168Z,68.42
